FOOG Airport Information

Runway Information
Runway 03 Length 6234 ft width 148 ft
Elevation 11 ft Threshold 0 ft Heading 22
Runway 21 Length 6234 ft Width 148 ft
Elevation 9 ft Threshold 0 ft Heading 202
Airport Frequencies
Type A/G Name A/G VOICE Frequency 655.9 MHZ
Type TWR Name TWR Frequency 118.3 MHZ
Airport Navaids
Type VOR Name Port Gentil Frequency 112300 KHZ
Airport Weather Information & NOTAM
ADDS - METARS form results

(1906 UTC 03 July 2020)
Data provider http://aviationweather.gov/metar/data/
 
Forecast for: FOOG (PORT GENTIL , GA)
Text: TAF FOOG 031700Z 0318/0418 20012KT 8000 SCT010 BKN030
Forecast period: 1800 UTC 03 July 2020 to 1800 UTC 04 July 2020
Forecast type: FROM: standard forecast or significant change
Winds: from the SSW (200 degrees) at 14 MPH (12 knots; 6.2 m/s)
Visibility: 5 miles (8 km)
Ceiling: 3000 feet AGL
Clouds: scattered clouds at 1000 feet AGL
broken clouds at 3000 feet AGL
Weather: no significant weather forecast for this period